createdAt,value
2018-06-19T00:00:11.213Z,13.10
2018-06-19T00:02:39.568Z,13.10
2018-06-19T00:05:08.018Z,13.10
2018-06-19T00:07:36.373Z,13.20
2018-06-19T00:10:04.769Z,13.20
2018-06-19T00:12:33.133Z,13.20
2018-06-19T00:15:01.518Z,13.20
2018-06-19T00:17:29.941Z,13.20
2018-06-19T00:19:58.410Z,13.20
2018-06-19T00:22:26.805Z,13.20
2018-06-19T00:24:55.192Z,13.10
2018-06-19T00:27:23.556Z,13.10
2018-06-19T00:29:51.914Z,13.10
2018-06-19T00:32:20.301Z,13.10
2018-06-19T00:34:48.645Z,13.10
2018-06-19T00:37:16.996Z,13.10
2018-06-19T00:39:45.396Z,13.10
2018-06-19T00:42:13.750Z,13.10
2018-06-19T00:44:42.097Z,13.10
2018-06-19T00:47:10.462Z,13.10
2018-06-19T00:49:38.774Z,13.10
2018-06-19T00:52:07.324Z,13.10
2018-06-19T00:54:35.668Z,13.00
2018-06-19T00:57:04.035Z,13.00
2018-06-19T00:59:32.340Z,13.00
2018-06-19T01:02:01.111Z,13.10
2018-06-19T01:04:29.455Z,13.10
2018-06-19T01:06:57.875Z,13.10
2018-06-19T01:09:26.218Z,13.10
2018-06-19T01:11:54.572Z,13.10
2018-06-19T01:14:22.905Z,13.20
2018-06-19T01:16:51.292Z,13.20
2018-06-19T01:19:19.681Z,13.30
2018-06-19T01:21:48.064Z,13.30
2018-06-19T01:24:16.435Z,13.30
2018-06-19T01:26:44.772Z,13.30
2018-06-19T01:29:13.166Z,13.30
2018-06-19T01:31:41.556Z,13.30
2018-06-19T01:34:09.978Z,13.20
2018-06-19T01:39:08.780Z,13.10
2018-06-19T01:44:05.206Z,13.10
2018-06-19T01:46:33.624Z,13.10
2018-06-19T01:49:02.023Z,13.00
2018-06-19T01:51:30.388Z,13.00
2018-06-19T01:53:58.783Z,13.00
2018-06-19T01:56:27.191Z,12.90
2018-06-19T01:58:55.575Z,12.90
2018-06-19T02:01:23.915Z,12.80
2018-06-19T02:03:52.315Z,12.80
2018-06-19T02:06:20.652Z,12.70
2018-06-19T02:08:48.996Z,12.70
2018-06-19T02:11:17.432Z,12.70
2018-06-19T02:13:45.788Z,12.60
2018-06-19T02:16:14.122Z,12.60
2018-06-19T02:18:42.454Z,12.60
2018-06-19T02:21:10.865Z,12.60
2018-06-19T02:23:39.645Z,12.50
2018-06-19T02:26:08.017Z,12.50
2018-06-19T02:28:36.376Z,12.50
2018-06-19T02:31:04.758Z,12.40
2018-06-19T02:33:33.102Z,12.40
2018-06-19T02:36:01.502Z,12.30
2018-06-19T02:38:29.842Z,12.30
2018-06-19T02:40:58.208Z,12.30
2018-06-19T02:43:26.581Z,12.20
2018-06-19T02:45:54.947Z,12.20
2018-06-19T02:48:23.305Z,12.20
2018-06-19T02:50:51.700Z,12.30
2018-06-19T02:53:20.048Z,12.30
2018-06-19T02:55:48.426Z,12.30
2018-06-19T02:58:16.786Z,12.30
2018-06-19T03:00:45.167Z,12.20
2018-06-19T03:03:13.522Z,12.20
2018-06-19T03:05:41.895Z,12.10
2018-06-19T03:08:10.495Z,12.10
2018-06-19T03:10:38.883Z,12.10
2018-06-19T03:13:07.265Z,12.00
2018-06-19T03:15:35.623Z,12.00
2018-06-19T03:18:04.022Z,12.00
2018-06-19T03:20:32.374Z,12.00
2018-06-19T03:23:00.735Z,11.90
2018-06-19T03:25:29.138Z,11.90
2018-06-19T03:27:57.510Z,11.90
2018-06-19T03:30:25.931Z,11.90
2018-06-19T03:32:54.294Z,11.90
2018-06-19T03:35:22.616Z,11.80
2018-06-19T03:37:51.016Z,11.80
2018-06-19T03:40:19.363Z,11.70
2018-06-19T03:42:47.740Z,11.70
2018-06-19T03:45:16.116Z,11.70
2018-06-19T03:47:44.566Z,11.80
2018-06-19T03:50:12.960Z,11.80
2018-06-19T03:52:41.309Z,11.80
2018-06-19T03:55:09.664Z,11.70
2018-06-19T03:57:38.046Z,11.70
2018-06-19T04:00:06.421Z,11.70
2018-06-19T04:02:34.819Z,11.70
2018-06-19T04:05:03.348Z,11.70
2018-06-19T04:07:31.764Z,11.70
2018-06-19T04:10:00.661Z,11.70
2018-06-19T04:12:28.988Z,11.70
2018-06-19T04:14:57.346Z,11.70
2018-06-19T04:17:27.122Z,11.70
2018-06-19T04:19:57.087Z,11.80
2018-06-19T04:22:27.889Z,11.80
2018-06-19T04:24:56.552Z,11.80
2018-06-19T04:27:24.898Z,11.80
2018-06-19T04:29:53.261Z,11.90
2018-06-19T04:32:21.633Z,11.90
2018-06-19T04:34:50.104Z,12.00
2018-06-19T04:37:18.437Z,12.00
2018-06-19T04:39:46.863Z,12.10
2018-06-19T04:42:15.244Z,12.10
2018-06-19T04:44:43.683Z,12.20
2018-06-19T04:47:12.013Z,12.30
2018-06-19T04:49:40.410Z,12.40
2018-06-19T04:52:08.771Z,12.50
2018-06-19T04:54:37.160Z,12.50
2018-06-19T04:57:05.713Z,12.60
2018-06-19T04:59:34.089Z,12.80
2018-06-19T05:02:02.428Z,12.80
2018-06-19T05:04:30.895Z,12.90
2018-06-19T05:06:59.245Z,13.00
2018-06-19T05:09:27.583Z,13.10
2018-06-19T05:11:56.008Z,13.20
2018-06-19T05:14:24.366Z,13.20
2018-06-19T05:16:52.729Z,13.30
2018-06-19T05:19:21.141Z,13.40
2018-06-19T05:21:49.474Z,13.60
2018-06-19T05:24:17.831Z,13.70
2018-06-19T05:26:46.204Z,13.80
2018-06-19T05:29:14.530Z,14.00
2018-06-19T05:31:42.871Z,14.10
2018-06-19T05:34:11.270Z,14.20
2018-06-19T05:36:39.682Z,14.30
2018-06-19T05:39:09.778Z,14.40
2018-06-19T05:41:38.231Z,14.60
2018-06-19T05:44:07.364Z,14.80
2018-06-19T05:46:36.355Z,15.00
2018-06-19T05:49:04.774Z,15.20
2018-06-19T05:51:33.194Z,15.40
2018-06-19T05:54:01.558Z,15.60
2018-06-19T05:56:29.994Z,15.90
2018-06-19T05:58:58.405Z,16.10
2018-06-19T06:01:26.779Z,16.30
2018-06-19T06:03:55.217Z,16.60
2018-06-19T06:06:23.546Z,16.80
2018-06-19T06:08:51.966Z,16.90
2018-06-19T06:11:20.281Z,17.10
2018-06-19T06:16:16.798Z,17.10
2018-06-19T06:18:45.202Z,17.30
2018-06-19T06:21:13.608Z,17.70
2018-06-19T06:23:42.000Z,18.10
2018-06-19T06:26:10.378Z,18.40
2018-06-19T06:28:38.737Z,18.60
2018-06-19T06:31:07.388Z,18.80
2018-06-19T06:33:35.906Z,18.90
2018-06-19T06:36:04.282Z,19.00
2018-06-19T06:41:00.742Z,19.30
2018-06-19T06:43:29.121Z,19.40
2018-06-19T06:45:57.751Z,19.50
2018-06-19T06:48:26.153Z,19.60
2018-06-19T06:50:54.555Z,19.60
2018-06-19T06:53:22.943Z,19.60
2018-06-19T06:55:51.351Z,19.70
2018-06-19T06:58:19.715Z,19.70
2018-06-19T07:00:48.117Z,19.80
2018-06-19T07:03:16.457Z,19.70
2018-06-19T07:05:45.123Z,19.60
2018-06-19T07:08:13.484Z,19.50
2018-06-19T07:10:41.861Z,19.50
2018-06-19T07:13:10.342Z,19.50
2018-06-19T07:15:38.754Z,19.50
2018-06-19T07:18:07.148Z,19.60
2018-06-19T07:20:35.505Z,20.30
2018-06-19T07:25:31.900Z,21.70
2018-06-19T07:28:01.284Z,22.40
2018-06-19T07:30:29.674Z,23.60
2018-06-19T07:32:58.015Z,24.10
2018-06-19T07:35:26.438Z,24.10
2018-06-19T07:37:54.810Z,24.40
2018-06-19T07:40:23.154Z,24.50
2018-06-19T07:42:51.688Z,24.00
2018-06-19T07:45:20.484Z,24.00
2018-06-19T07:47:48.854Z,23.70
2018-06-19T07:50:17.198Z,23.40
2018-06-19T07:52:45.555Z,23.40
2018-06-19T08:02:38.288Z,22.60
2018-06-19T08:05:06.646Z,22.40
2018-06-19T08:07:34.996Z,22.30
2018-06-19T08:10:03.394Z,22.20
2018-06-19T08:12:31.824Z,22.20
2018-06-19T08:15:00.248Z,22.20
2018-06-19T08:19:56.744Z,22.20
2018-06-19T08:22:25.147Z,22.20
2018-06-19T08:24:53.565Z,22.30
2018-06-19T08:27:22.001Z,22.40
2018-06-19T08:29:50.306Z,22.40
2018-06-19T08:32:18.703Z,22.50
2018-06-19T08:34:47.334Z,22.60
2018-06-19T08:37:15.706Z,22.80
2018-06-19T08:39:44.149Z,22.70
2018-06-19T08:42:12.525Z,22.50
2018-06-19T08:44:40.955Z,22.60
2018-06-19T08:47:09.377Z,22.50
2018-06-19T08:49:37.791Z,22.30
2018-06-19T08:52:06.137Z,22.20
2018-06-19T08:54:34.557Z,22.30
2018-06-19T08:57:02.927Z,22.50
2018-06-19T08:59:31.299Z,22.60
2018-06-19T09:01:59.632Z,22.70
2018-06-19T09:04:28.041Z,22.80
2018-06-19T09:06:56.387Z,23.40
2018-06-19T09:09:24.777Z,24.10
2018-06-19T09:11:53.160Z,24.40
2018-06-19T09:16:50.203Z,24.90
2018-06-19T09:19:18.567Z,24.50
2018-06-19T09:21:46.986Z,24.40
2018-06-19T09:24:15.331Z,24.70
2018-06-19T09:26:43.725Z,25.00
2018-06-19T09:29:12.094Z,25.20
2018-06-19T09:31:40.571Z,25.40
2018-06-19T09:34:08.850Z,25.40
2018-06-19T09:36:37.219Z,25.60
2018-06-19T09:39:07.837Z,25.50
2018-06-19T09:41:36.250Z,25.80
2018-06-19T09:44:04.606Z,26.00
2018-06-19T09:46:32.952Z,26.40
2018-06-19T09:49:01.286Z,26.40
2018-06-19T09:51:29.796Z,26.50
2018-06-19T09:53:58.220Z,26.60
2018-06-19T09:56:26.591Z,26.70
2018-06-19T09:58:55.120Z,27.20
2018-06-19T10:01:23.555Z,28.30
2018-06-19T10:03:51.923Z,29.00
2018-06-19T10:06:20.392Z,29.60
2018-06-19T10:08:48.736Z,30.50
2018-06-19T10:11:17.109Z,31.10
2018-06-19T10:13:45.481Z,31.40
2018-06-19T10:16:13.893Z,31.40
2018-06-19T10:18:42.272Z,30.90
2018-06-19T10:21:10.690Z,30.20
2018-06-19T10:23:39.046Z,29.20
2018-06-19T10:26:07.416Z,28.60
2018-06-19T10:28:35.799Z,28.20
2018-06-19T10:36:00.332Z,27.10
2018-06-19T10:38:28.720Z,27.10
2018-06-19T10:40:57.159Z,27.00
2018-06-19T10:43:25.634Z,27.00
2018-06-19T10:48:22.131Z,27.20
2018-06-19T10:50:50.495Z,27.50
2018-06-19T10:53:18.846Z,27.60
2018-06-19T10:55:47.179Z,27.30
2018-06-19T10:58:15.556Z,26.80
2018-06-19T11:00:43.905Z,26.40
2018-06-19T11:03:12.298Z,26.40
2018-06-19T11:05:40.664Z,26.20
2018-06-19T11:08:09.071Z,25.80
2018-06-19T11:10:37.403Z,25.40
2018-06-19T11:13:06.084Z,25.30
2018-06-19T11:15:34.476Z,25.30
2018-06-19T11:18:03.890Z,25.50
2018-06-19T11:20:32.285Z,25.90
2018-06-19T11:23:00.672Z,26.30
2018-06-19T11:25:29.083Z,26.90
2018-06-19T11:27:57.462Z,27.40
2018-06-19T11:30:25.836Z,27.30
2018-06-19T11:32:54.243Z,27.00
2018-06-19T11:35:22.608Z,26.80
2018-06-19T11:37:50.952Z,26.70
2018-06-19T11:40:19.340Z,26.50
2018-06-19T11:42:47.663Z,26.60
2018-06-19T11:45:16.073Z,26.90
2018-06-19T11:47:44.682Z,27.00
2018-06-19T11:50:13.132Z,27.40
2018-06-19T11:52:41.612Z,27.20
2018-06-19T11:55:10.147Z,27.20
2018-06-19T11:57:38.554Z,27.10
2018-06-19T12:00:07.121Z,27.10
2018-06-19T12:02:35.470Z,27.20
2018-06-19T12:05:03.906Z,27.30
2018-06-19T12:07:37.629Z,27.40
2018-06-19T12:10:06.026Z,27.90
2018-06-19T12:12:34.448Z,28.50
2018-06-19T12:17:30.875Z,29.10
2018-06-19T12:19:59.307Z,29.20
2018-06-19T12:22:27.833Z,29.40
2018-06-19T12:24:56.208Z,29.30
2018-06-19T12:27:24.624Z,29.70
2018-06-19T12:29:53.118Z,30.30
2018-06-19T12:32:21.480Z,30.80
2018-06-19T12:34:49.838Z,31.30
2018-06-19T12:37:18.226Z,31.40
2018-06-19T12:39:46.616Z,32.00
2018-06-19T12:42:15.003Z,32.40
2018-06-19T12:44:43.314Z,32.90
2018-06-19T12:47:11.779Z,33.30
2018-06-19T12:49:51.537Z,33.00
2018-06-19T12:52:31.304Z,32.90
2018-06-19T12:55:22.179Z,33.10
2018-06-19T12:57:51.554Z,32.90
2018-06-19T13:00:19.936Z,33.20
2018-06-19T13:03:00.278Z,33.20
2018-06-19T13:08:02.371Z,33.30
2018-06-19T13:10:30.804Z,33.10
2018-06-19T13:13:35.580Z,32.90
2018-06-19T13:16:03.990Z,32.80
2018-06-19T13:18:44.218Z,32.40
2018-06-19T13:23:40.720Z,31.70
2018-06-19T13:26:09.072Z,31.80
2018-06-19T13:29:55.657Z,31.80
2018-06-19T13:32:24.405Z,32.10
2018-06-19T13:34:52.832Z,32.00
2018-06-19T13:37:21.280Z,31.90
2018-06-19T13:41:06.162Z,31.70
2018-06-19T13:46:09.378Z,31.70
2018-06-19T13:48:38.012Z,32.00
2018-06-19T13:51:06.429Z,32.10
2018-06-19T13:53:34.838Z,31.90
2018-06-19T13:56:14.449Z,31.90
2018-06-19T13:58:42.912Z,31.90
2018-06-19T14:01:11.292Z,31.70
2018-06-19T14:03:39.639Z,31.80
2018-06-19T14:06:07.998Z,32.00
2018-06-19T14:08:54.429Z,31.90
2018-06-19T14:11:34.142Z,31.80
2018-06-19T14:14:02.518Z,31.90
2018-06-19T14:16:30.861Z,31.30
2018-06-19T14:18:59.239Z,31.20
2018-06-19T14:21:27.605Z,30.60
2018-06-19T14:23:56.010Z,30.50
2018-06-19T14:26:24.374Z,30.30
2018-06-19T14:28:52.762Z,30.20
2018-06-19T14:31:21.073Z,30.30
2018-06-19T14:33:49.434Z,30.10
2018-06-19T14:36:17.789Z,30.00
2018-06-19T14:38:46.192Z,29.90
2018-06-19T14:41:14.640Z,29.90
2018-06-19T14:43:43.035Z,29.60
2018-06-19T14:46:11.465Z,29.50
2018-06-19T14:48:39.831Z,29.40
2018-06-19T14:51:08.186Z,29.40
2018-06-19T14:53:36.651Z,29.50
2018-06-19T14:56:05.202Z,29.30
2018-06-19T14:58:33.563Z,29.10
2018-06-19T15:01:01.957Z,29.10
2018-06-19T15:03:30.342Z,29.20
2018-06-19T15:05:58.749Z,29.10
2018-06-19T15:08:27.098Z,29.00
2018-06-19T15:10:55.465Z,28.80
2018-06-19T15:13:23.800Z,28.70
2018-06-19T15:15:52.183Z,28.50
2018-06-19T15:18:20.626Z,28.50
2018-06-19T15:20:48.934Z,28.40
2018-06-19T15:23:17.322Z,28.30
2018-06-19T15:25:45.708Z,28.40
2018-06-19T15:28:14.050Z,28.30
2018-06-19T15:30:42.492Z,28.20
2018-06-19T15:33:10.836Z,28.30
2018-06-19T15:35:39.217Z,28.30
2018-06-19T15:38:07.579Z,28.20
2018-06-19T15:40:35.986Z,28.10
2018-06-19T15:43:04.416Z,28.10
2018-06-19T15:45:32.799Z,28.20
2018-06-19T15:48:01.110Z,28.10
2018-06-19T15:50:29.538Z,28.20
2018-06-19T15:52:57.895Z,28.10
2018-06-19T15:55:26.344Z,28.30
2018-06-19T15:57:54.748Z,28.40
2018-06-19T16:00:23.184Z,28.30
2018-06-19T16:02:51.647Z,28.30
2018-06-19T16:05:20.098Z,28.30
2018-06-19T16:07:53.858Z,28.30
2018-06-19T16:10:22.260Z,28.40
2018-06-19T16:12:50.571Z,28.30
2018-06-19T16:15:18.918Z,27.90
2018-06-19T16:17:47.317Z,27.90
2018-06-19T16:20:15.697Z,27.90
2018-06-19T16:22:44.079Z,28.00
2018-06-19T16:25:12.419Z,28.00
2018-06-19T16:30:08.881Z,27.90
2018-06-19T16:32:37.271Z,27.80
2018-06-19T16:35:05.825Z,27.70
2018-06-19T16:37:34.214Z,27.50
2018-06-19T16:40:02.612Z,27.30
2018-06-19T16:42:31.030Z,27.10
2018-06-19T16:44:59.861Z,27.00
2018-06-19T16:49:56.425Z,27.00
2018-06-19T16:52:24.825Z,26.80
2018-06-19T16:54:53.304Z,26.70
2018-06-19T16:57:21.686Z,26.70
2018-06-19T16:59:50.048Z,26.80
2018-06-19T17:02:18.441Z,26.90
2018-06-19T17:04:46.802Z,26.90
2018-06-19T17:07:15.171Z,26.80
2018-06-19T17:09:43.697Z,26.70
2018-06-19T17:12:12.254Z,26.60
2018-06-19T17:14:40.606Z,26.40
2018-06-19T17:17:09.041Z,26.20
2018-06-19T17:19:37.410Z,26.20
2018-06-19T17:22:05.755Z,26.00
2018-06-19T17:24:34.115Z,25.90
2018-06-19T17:27:02.466Z,25.80
2018-06-19T17:29:30.874Z,25.70
2018-06-19T17:31:59.236Z,25.60
2018-06-19T17:34:27.583Z,25.60
2018-06-19T17:36:55.993Z,25.40
2018-06-19T17:39:24.384Z,25.30
2018-06-19T17:41:52.763Z,25.30
2018-06-19T17:44:21.155Z,25.20
2018-06-19T17:46:49.547Z,25.10
2018-06-19T17:49:18.146Z,25.00
2018-06-19T17:51:46.593Z,24.90
2018-06-19T17:54:15.048Z,24.80
2018-06-19T17:56:43.402Z,24.80
2018-06-19T17:59:11.800Z,24.80
2018-06-19T18:01:40.229Z,24.70
2018-06-19T18:04:08.590Z,24.70
2018-06-19T18:06:36.966Z,24.60
2018-06-19T18:09:08.050Z,24.50
2018-06-19T18:11:36.441Z,24.40
2018-06-19T18:14:04.846Z,24.40
2018-06-19T18:16:33.353Z,24.30
2018-06-19T18:19:01.791Z,24.20
2018-06-19T18:21:30.239Z,24.10
2018-06-19T18:23:58.585Z,24.00
2018-06-19T18:26:26.983Z,23.90
2018-06-19T18:28:55.392Z,23.80
2018-06-19T18:31:23.813Z,23.70
2018-06-19T18:33:52.162Z,23.70
2018-06-19T18:36:20.590Z,23.60
2018-06-19T18:41:17.021Z,23.60
2018-06-19T18:43:46.572Z,23.60
2018-06-19T18:46:15.047Z,23.60
2018-06-19T18:48:43.392Z,23.50
2018-06-19T18:51:11.772Z,23.50
2018-06-19T18:53:40.147Z,23.40
2018-06-19T18:56:08.536Z,23.30
2018-06-19T18:58:36.890Z,23.20
2018-06-19T19:01:05.339Z,23.10
2018-06-19T19:03:33.716Z,22.90
2018-06-19T19:06:02.119Z,22.80
2018-06-19T19:08:30.519Z,22.70
2018-06-19T19:10:58.944Z,22.60
2018-06-19T19:13:28.240Z,22.40
2018-06-19T19:16:01.984Z,22.30
2018-06-19T19:18:35.811Z,22.20
2018-06-19T19:21:04.240Z,22.10
2018-06-19T19:23:32.627Z,21.90
2018-06-19T19:26:01.074Z,21.80
2018-06-19T19:28:34.765Z,21.70
2018-06-19T19:31:03.149Z,21.60
2018-06-19T19:33:31.550Z,21.50
2018-06-19T19:35:59.938Z,21.40
2018-06-19T19:38:33.853Z,21.30
2018-06-19T19:41:02.240Z,21.20
2018-06-19T19:43:30.635Z,21.10
2018-06-19T19:45:59.031Z,21.00
2018-06-19T19:48:32.685Z,20.80
2018-06-19T19:51:01.049Z,20.60
2018-06-19T19:53:29.459Z,20.50
2018-06-19T19:56:03.130Z,20.30
2018-06-19T19:58:37.036Z,20.10
2018-06-19T20:01:05.402Z,20.00
2018-06-19T20:06:01.870Z,19.60
2018-06-19T20:08:30.255Z,19.50
2018-06-19T20:10:58.641Z,19.40
2018-06-19T20:13:27.092Z,19.30
2018-06-19T20:15:55.504Z,19.10
2018-06-19T20:18:23.843Z,19.00
2018-06-19T20:20:52.312Z,18.90
2018-06-19T20:23:20.678Z,18.80
2018-06-19T20:25:49.070Z,18.70
2018-06-19T20:28:17.462Z,18.60
2018-06-19T20:30:45.837Z,18.50
2018-06-19T20:33:14.208Z,18.30
2018-06-19T20:35:42.638Z,18.20
2018-06-19T20:38:11.038Z,18.10
2018-06-19T20:40:39.472Z,18.00
2018-06-19T20:43:07.854Z,17.90
2018-06-19T20:45:36.240Z,17.80
2018-06-19T20:48:04.600Z,17.70
2018-06-19T20:50:33.013Z,17.60
2018-06-19T20:53:01.381Z,17.50
2018-06-19T20:55:29.792Z,17.50
2018-06-19T20:57:58.167Z,17.40
2018-06-19T21:00:26.600Z,17.30
2018-06-19T21:02:54.972Z,17.20
2018-06-19T21:05:23.374Z,17.20
2018-06-19T21:07:51.744Z,17.10
2018-06-19T21:10:20.189Z,17.00
2018-06-19T21:12:48.565Z,16.90
2018-06-19T21:15:16.937Z,16.80
2018-06-19T21:17:45.328Z,16.70
2018-06-19T21:20:13.717Z,16.70
2018-06-19T21:22:42.099Z,16.60
2018-06-19T21:25:10.464Z,16.50
2018-06-19T21:27:38.855Z,16.50
2018-06-19T21:30:08.631Z,16.40
2018-06-19T21:32:37.233Z,16.40
2018-06-19T21:35:05.639Z,16.30
2018-06-19T21:37:34.024Z,16.20
2018-06-19T21:42:30.529Z,16.10
2018-06-19T21:44:58.882Z,16.00
2018-06-19T21:47:27.289Z,16.00
2018-06-19T21:49:55.643Z,15.90
2018-06-19T21:52:24.047Z,15.90
2018-06-19T21:54:52.616Z,15.80
2018-06-19T21:57:20.994Z,15.80
2018-06-19T21:59:49.362Z,15.70
2018-06-19T22:02:21.998Z,15.60
2018-06-19T22:07:18.462Z,15.50
2018-06-19T22:12:14.883Z,15.50
2018-06-19T22:14:43.309Z,15.40
2018-06-19T22:17:11.685Z,15.30
2018-06-19T22:19:40.077Z,15.30
2018-06-19T22:22:08.436Z,15.20
2018-06-19T22:24:36.795Z,15.20
2018-06-19T22:27:05.163Z,15.10
2018-06-19T22:29:33.591Z,15.10
2018-06-19T22:32:02.074Z,15.10
2018-06-19T22:34:30.697Z,15.00
2018-06-19T22:36:59.380Z,15.00
2018-06-19T22:39:27.851Z,15.00
2018-06-19T22:41:56.242Z,14.90
2018-06-19T22:44:24.649Z,14.90
2018-06-19T22:46:53.130Z,14.90
2018-06-19T22:51:49.799Z,14.80
2018-06-19T22:54:18.119Z,14.70
2018-06-19T22:56:46.494Z,14.60
2018-06-19T22:59:14.853Z,14.60
2018-06-19T23:01:43.191Z,14.50
2018-06-19T23:06:39.636Z,14.50
2018-06-19T23:09:08.897Z,14.50
2018-06-19T23:11:37.410Z,14.40
2018-06-19T23:14:05.847Z,14.40
2018-06-19T23:16:34.242Z,14.40
2018-06-19T23:19:02.568Z,14.30
2018-06-19T23:21:30.963Z,14.30
2018-06-19T23:23:59.316Z,14.20
2018-06-19T23:26:27.716Z,14.20
2018-06-19T23:28:56.086Z,14.20
2018-06-19T23:33:52.560Z,14.10
2018-06-19T23:36:20.957Z,14.10
2018-06-19T23:38:49.325Z,14.10
2018-06-19T23:41:17.699Z,14.00
2018-06-19T23:43:46.050Z,14.00
2018-06-19T23:46:14.398Z,14.00
2018-06-19T23:48:42.770Z,13.90
2018-06-19T23:51:11.130Z,13.90
2018-06-19T23:53:39.463Z,13.90
2018-06-19T23:56:07.863Z,13.80
2018-06-19T23:58:36.236Z,13.80
